sensor_id;sensor_type;location;lat;lon;timestamp;temperature;humidity
18839;DHT22;9548;56.920;14.804;2023-05-07T00:00:40;-0.30;99.90
18839;DHT22;9548;56.920;14.804;2023-05-07T00:03:08;-0.30;99.90
18839;DHT22;9548;56.920;14.804;2023-05-07T00:05:36;-0.30;99.90
18839;DHT22;9548;56.920;14.804;2023-05-07T00:08:03;-0.30;99.90
18839;DHT22;9548;56.920;14.804;2023-05-07T00:10:30;-0.30;99.90
18839;DHT22;9548;56.920;14.804;2023-05-07T00:12:57;-0.30;99.90
18839;DHT22;9548;56.920;14.804;2023-05-07T00:15:24;-0.40;99.90
18839;DHT22;9548;56.920;14.804;2023-05-07T00:17:51;-0.40;99.90
18839;DHT22;9548;56.920;14.804;2023-05-07T00:20:18;-0.40;99.90
18839;DHT22;9548;56.920;14.804;2023-05-07T00:22:46;-0.40;99.90
18839;DHT22;9548;56.920;14.804;2023-05-07T00:25:13;-0.50;99.90
18839;DHT22;9548;56.920;14.804;2023-05-07T00:27:40;-0.50;99.90
18839;DHT22;9548;56.920;14.804;2023-05-07T00:30:07;-0.50;99.90
18839;DHT22;9548;56.920;14.804;2023-05-07T00:32:35;-0.50;99.90
18839;DHT22;9548;56.920;14.804;2023-05-07T00:35:02;-0.40;99.90
18839;DHT22;9548;56.920;14.804;2023-05-07T00:37:29;-0.40;99.90
18839;DHT22;9548;56.920;14.804;2023-05-07T00:39:57;-0.30;99.90
18839;DHT22;9548;56.920;14.804;2023-05-07T00:42:24;-0.20;99.90
18839;DHT22;9548;56.920;14.804;2023-05-07T00:44:51;-0.10;99.90
18839;DHT22;9548;56.920;14.804;2023-05-07T00:47:18;-0.10;99.90
18839;DHT22;9548;56.920;14.804;2023-05-07T00:49:45;0.00;99.90
18839;DHT22;9548;56.920;14.804;2023-05-07T00:52:14;0.00;99.90
18839;DHT22;9548;56.920;14.804;2023-05-07T00:54:42;0.00;99.90
18839;DHT22;9548;56.920;14.804;2023-05-07T00:57:11;0.00;99.90
18839;DHT22;9548;56.920;14.804;2023-05-07T00:59:38;0.00;99.90
18839;DHT22;9548;56.920;14.804;2023-05-07T01:02:06;0.00;99.90
18839;DHT22;9548;56.920;14.804;2023-05-07T01:04:33;0.00;99.90
18839;DHT22;9548;56.920;14.804;2023-05-07T01:07:01;0.00;99.90
18839;DHT22;9548;56.920;14.804;2023-05-07T01:09:28;-0.10;99.90
18839;DHT22;9548;56.920;14.804;2023-05-07T01:11:56;-0.10;99.90
18839;DHT22;9548;56.920;14.804;2023-05-07T01:14:25;-0.10;99.90
18839;DHT22;9548;56.920;14.804;2023-05-07T01:16:52;-0.10;99.90
18839;DHT22;9548;56.920;14.804;2023-05-07T01:19:20;-0.10;99.90
18839;DHT22;9548;56.920;14.804;2023-05-07T01:21:48;0.00;99.90
18839;DHT22;9548;56.920;14.804;2023-05-07T01:24:18;0.00;99.90
18839;DHT22;9548;56.920;14.804;2023-05-07T01:26:45;-0.10;99.90
18839;DHT22;9548;56.920;14.804;2023-05-07T01:29:12;-0.10;99.90
18839;DHT22;9548;56.920;14.804;2023-05-07T01:31:40;-0.10;99.90
18839;DHT22;9548;56.920;14.804;2023-05-07T01:34:08;-0.20;99.90
18839;DHT22;9548;56.920;14.804;2023-05-07T01:36:37;-0.30;99.90
18839;DHT22;9548;56.920;14.804;2023-05-07T01:39:06;-0.30;99.90
18839;DHT22;9548;56.920;14.804;2023-05-07T01:41:35;-0.40;99.90
18839;DHT22;9548;56.920;14.804;2023-05-07T01:44:03;-0.50;99.90
18839;DHT22;9548;56.920;14.804;2023-05-07T01:46:31;-0.60;99.90
18839;DHT22;9548;56.920;14.804;2023-05-07T01:48:58;-0.60;99.90
18839;DHT22;9548;56.920;14.804;2023-05-07T01:51:25;-0.70;99.90
18839;DHT22;9548;56.920;14.804;2023-05-07T01:53:53;-0.80;99.90
18839;DHT22;9548;56.920;14.804;2023-05-07T01:56:20;-0.80;99.90
18839;DHT22;9548;56.920;14.804;2023-05-07T01:58:48;-0.80;99.90
18839;DHT22;9548;56.920;14.804;2023-05-07T02:01:16;-0.90;99.90
18839;DHT22;9548;56.920;14.804;2023-05-07T02:03:43;-0.90;99.90
18839;DHT22;9548;56.920;14.804;2023-05-07T02:06:10;-0.90;99.90
18839;DHT22;9548;56.920;14.804;2023-05-07T02:08:37;-0.90;99.90
18839;DHT22;9548;56.920;14.804;2023-05-07T02:11:04;-1.00;99.90
18839;DHT22;9548;56.920;14.804;2023-05-07T02:13:32;-1.00;99.90
18839;DHT22;9548;56.920;14.804;2023-05-07T02:16:01;-0.90;99.90
18839;DHT22;9548;56.920;14.804;2023-05-07T02:18:28;-0.90;99.90
18839;DHT22;9548;56.920;14.804;2023-05-07T02:20:55;-1.00;99.90
18839;DHT22;9548;56.920;14.804;2023-05-07T02:23:22;-1.00;99.90
18839;DHT22;9548;56.920;14.804;2023-05-07T02:25:49;-1.00;99.90
18839;DHT22;9548;56.920;14.804;2023-05-07T02:28:16;-0.90;99.90
18839;DHT22;9548;56.920;14.804;2023-05-07T02:30:43;-1.00;99.90
18839;DHT22;9548;56.920;14.804;2023-05-07T02:33:11;-1.00;99.90
18839;DHT22;9548;56.920;14.804;2023-05-07T02:35:39;-1.00;99.90
18839;DHT22;9548;56.920;14.804;2023-05-07T02:38:06;-1.00;99.90
18839;DHT22;9548;56.920;14.804;2023-05-07T02:40:33;-0.90;99.90
18839;DHT22;9548;56.920;14.804;2023-05-07T02:43:04;-0.90;99.90
18839;DHT22;9548;56.920;14.804;2023-05-07T02:45:31;-1.00;99.90
18839;DHT22;9548;56.920;14.804;2023-05-07T02:47:58;-1.00;99.90
18839;DHT22;9548;56.920;14.804;2023-05-07T02:50:26;-1.00;99.90
18839;DHT22;9548;56.920;14.804;2023-05-07T02:52:53;-1.10;99.90
18839;DHT22;9548;56.920;14.804;2023-05-07T02:55:20;-1.10;99.90
18839;DHT22;9548;56.920;14.804;2023-05-07T02:57:47;-1.10;99.90
18839;DHT22;9548;56.920;14.804;2023-05-07T03:00:15;-1.10;99.90
18839;DHT22;9548;56.920;14.804;2023-05-07T03:02:42;-1.10;99.90
18839;DHT22;9548;56.920;14.804;2023-05-07T03:05:09;-1.10;99.90
18839;DHT22;9548;56.920;14.804;2023-05-07T03:07:37;-1.10;99.90
18839;DHT22;9548;56.920;14.804;2023-05-07T03:10:05;-1.10;99.90
18839;DHT22;9548;56.920;14.804;2023-05-07T03:12:32;-1.10;99.90
18839;DHT22;9548;56.920;14.804;2023-05-07T03:14:59;-1.10;99.90
18839;DHT22;9548;56.920;14.804;2023-05-07T03:17:26;-1.10;99.90
18839;DHT22;9548;56.920;14.804;2023-05-07T03:19:53;-1.10;99.90
18839;DHT22;9548;56.920;14.804;2023-05-07T03:22:20;-1.10;99.90
18839;DHT22;9548;56.920;14.804;2023-05-07T03:24:48;-1.00;99.90
18839;DHT22;9548;56.920;14.804;2023-05-07T03:27:15;-1.00;99.90
18839;DHT22;9548;56.920;14.804;2023-05-07T03:29:42;-1.00;99.90
18839;DHT22;9548;56.920;14.804;2023-05-07T03:32:09;-1.00;99.90
18839;DHT22;9548;56.920;14.804;2023-05-07T03:34:36;-0.90;99.90
18839;DHT22;9548;56.920;14.804;2023-05-07T03:37:03;-0.80;99.90
18839;DHT22;9548;56.920;14.804;2023-05-07T03:39:30;-0.80;99.90
18839;DHT22;9548;56.920;14.804;2023-05-07T03:41:59;-0.70;99.90
18839;DHT22;9548;56.920;14.804;2023-05-07T03:44:26;-0.70;99.90
18839;DHT22;9548;56.920;14.804;2023-05-07T03:46:53;-0.70;99.90
18839;DHT22;9548;56.920;14.804;2023-05-07T03:49:20;-0.70;99.90
18839;DHT22;9548;56.920;14.804;2023-05-07T03:51:47;-0.70;99.90
18839;DHT22;9548;56.920;14.804;2023-05-07T03:54:14;-0.70;99.90
18839;DHT22;9548;56.920;14.804;2023-05-07T03:56:41;-0.70;99.90
18839;DHT22;9548;56.920;14.804;2023-05-07T03:59:09;-0.60;99.90
18839;DHT22;9548;56.920;14.804;2023-05-07T04:01:36;-0.60;99.90
18839;DHT22;9548;56.920;14.804;2023-05-07T04:04:03;-0.50;99.90
18839;DHT22;9548;56.920;14.804;2023-05-07T04:06:30;-0.40;99.90
18839;DHT22;9548;56.920;14.804;2023-05-07T04:08:57;-0.20;99.90
18839;DHT22;9548;56.920;14.804;2023-05-07T04:11:25;-0.10;99.90
18839;DHT22;9548;56.920;14.804;2023-05-07T04:13:51;-0.10;99.90
18839;DHT22;9548;56.920;14.804;2023-05-07T04:16:20;0.10;99.90
18839;DHT22;9548;56.920;14.804;2023-05-07T04:18:47;0.10;99.90
18839;DHT22;9548;56.920;14.804;2023-05-07T04:21:14;0.20;99.90
18839;DHT22;9548;56.920;14.804;2023-05-07T04:23:42;0.20;99.90
18839;DHT22;9548;56.920;14.804;2023-05-07T04:26:09;0.20;99.90
18839;DHT22;9548;56.920;14.804;2023-05-07T04:28:35;0.30;99.90
18839;DHT22;9548;56.920;14.804;2023-05-07T04:31:02;0.40;99.90
18839;DHT22;9548;56.920;14.804;2023-05-07T04:33:31;0.40;99.90
18839;DHT22;9548;56.920;14.804;2023-05-07T04:35:59;0.50;99.90
18839;DHT22;9548;56.920;14.804;2023-05-07T04:38:28;0.60;99.90
18839;DHT22;9548;56.920;14.804;2023-05-07T04:40:55;0.60;99.90
18839;DHT22;9548;56.920;14.804;2023-05-07T04:43:22;0.70;99.90
18839;DHT22;9548;56.920;14.804;2023-05-07T04:45:51;0.80;99.90
18839;DHT22;9548;56.920;14.804;2023-05-07T04:48:18;1.00;99.90
18839;DHT22;9548;56.920;14.804;2023-05-07T04:50:49;1.10;99.90
18839;DHT22;9548;56.920;14.804;2023-05-07T04:53:16;1.30;99.90
18839;DHT22;9548;56.920;14.804;2023-05-07T04:55:43;1.40;99.90
18839;DHT22;9548;56.920;14.804;2023-05-07T04:58:10;1.50;99.90
18839;DHT22;9548;56.920;14.804;2023-05-07T05:00:37;1.50;99.90
18839;DHT22;9548;56.920;14.804;2023-05-07T05:03:05;1.60;99.90
18839;DHT22;9548;56.920;14.804;2023-05-07T05:05:32;1.60;99.90
18839;DHT22;9548;56.920;14.804;2023-05-07T05:08:01;1.70;99.90
18839;DHT22;9548;56.920;14.804;2023-05-07T05:10:28;1.70;99.90
18839;DHT22;9548;56.920;14.804;2023-05-07T05:12:54;1.80;99.90
18839;DHT22;9548;56.920;14.804;2023-05-07T05:15:22;1.90;99.90
18839;DHT22;9548;56.920;14.804;2023-05-07T05:17:48;2.00;99.90
18839;DHT22;9548;56.920;14.804;2023-05-07T05:20:15;2.20;99.90
18839;DHT22;9548;56.920;14.804;2023-05-07T05:22:42;2.40;99.90
18839;DHT22;9548;56.920;14.804;2023-05-07T05:25:11;2.50;99.90
18839;DHT22;9548;56.920;14.804;2023-05-07T05:27:38;2.60;99.90
18839;DHT22;9548;56.920;14.804;2023-05-07T05:30:06;2.80;99.90
18839;DHT22;9548;56.920;14.804;2023-05-07T05:32:33;2.90;99.90
18839;DHT22;9548;56.920;14.804;2023-05-07T05:35:00;3.10;99.90
18839;DHT22;9548;56.920;14.804;2023-05-07T05:37:27;3.10;99.90
18839;DHT22;9548;56.920;14.804;2023-05-07T05:39:55;3.20;99.90
18839;DHT22;9548;56.920;14.804;2023-05-07T05:42:24;3.30;99.90
18839;DHT22;9548;56.920;14.804;2023-05-07T05:44:50;3.40;99.90
18839;DHT22;9548;56.920;14.804;2023-05-07T05:47:17;3.40;99.90
18839;DHT22;9548;56.920;14.804;2023-05-07T05:49:44;3.40;99.90
18839;DHT22;9548;56.920;14.804;2023-05-07T05:52:12;3.50;99.90
18839;DHT22;9548;56.920;14.804;2023-05-07T05:54:39;3.50;99.90
18839;DHT22;9548;56.920;14.804;2023-05-07T05:57:06;3.60;99.90
18839;DHT22;9548;56.920;14.804;2023-05-07T05:59:34;3.80;99.90
18839;DHT22;9548;56.920;14.804;2023-05-07T06:02:01;3.90;99.90
18839;DHT22;9548;56.920;14.804;2023-05-07T06:04:28;4.00;99.90
18839;DHT22;9548;56.920;14.804;2023-05-07T06:06:56;4.00;99.90
18839;DHT22;9548;56.920;14.804;2023-05-07T06:09:22;4.20;99.90
18839;DHT22;9548;56.920;14.804;2023-05-07T06:11:49;4.40;99.90
18839;DHT22;9548;56.920;14.804;2023-05-07T06:14:16;4.50;99.90
18839;DHT22;9548;56.920;14.804;2023-05-07T06:16:46;4.70;99.90
18839;DHT22;9548;56.920;14.804;2023-05-07T06:19:13;4.80;99.90
18839;DHT22;9548;56.920;14.804;2023-05-07T06:21:40;5.00;99.90
18839;DHT22;9548;56.920;14.804;2023-05-07T06:24:07;5.20;99.90
18839;DHT22;9548;56.920;14.804;2023-05-07T06:26:34;5.40;99.90
18839;DHT22;9548;56.920;14.804;2023-05-07T06:29:01;5.50;99.90
18839;DHT22;9548;56.920;14.804;2023-05-07T06:31:30;5.70;99.90
18839;DHT22;9548;56.920;14.804;2023-05-07T06:33:58;5.80;99.90
18839;DHT22;9548;56.920;14.804;2023-05-07T06:36:27;5.90;99.90
18839;DHT22;9548;56.920;14.804;2023-05-07T06:38:55;6.10;99.90
18839;DHT22;9548;56.920;14.804;2023-05-07T06:41:21;6.20;99.90
18839;DHT22;9548;56.920;14.804;2023-05-07T06:43:48;6.30;99.90
18839;DHT22;9548;56.920;14.804;2023-05-07T06:46:16;6.40;99.90
18839;DHT22;9548;56.920;14.804;2023-05-07T06:48:42;6.60;99.90
18839;DHT22;9548;56.920;14.804;2023-05-07T06:51:11;6.70;99.90
18839;DHT22;9548;56.920;14.804;2023-05-07T06:53:40;6.80;99.90
18839;DHT22;9548;56.920;14.804;2023-05-07T06:56:07;7.00;99.90
18839;DHT22;9548;56.920;14.804;2023-05-07T06:58:34;7.10;99.90
18839;DHT22;9548;56.920;14.804;2023-05-07T07:01:01;7.30;99.90
18839;DHT22;9548;56.920;14.804;2023-05-07T07:03:28;7.40;99.90
18839;DHT22;9548;56.920;14.804;2023-05-07T07:05:55;7.50;99.90
18839;DHT22;9548;56.920;14.804;2023-05-07T07:08:23;7.60;99.90
18839;DHT22;9548;56.920;14.804;2023-05-07T07:10:50;7.70;99.90
18839;DHT22;9548;56.920;14.804;2023-05-07T07:13:17;7.80;99.90
18839;DHT22;9548;56.920;14.804;2023-05-07T07:15:44;7.90;99.90
18839;DHT22;9548;56.920;14.804;2023-05-07T07:18:11;8.00;99.90
18839;DHT22;9548;56.920;14.804;2023-05-07T07:20:38;8.20;99.90
18839;DHT22;9548;56.920;14.804;2023-05-07T07:23:05;8.30;99.90
18839;DHT22;9548;56.920;14.804;2023-05-07T07:25:33;8.50;99.90
18839;DHT22;9548;56.920;14.804;2023-05-07T07:28:00;8.50;99.90
18839;DHT22;9548;56.920;14.804;2023-05-07T07:30:27;8.70;99.90
18839;DHT22;9548;56.920;14.804;2023-05-07T07:32:54;8.80;99.90
18839;DHT22;9548;56.920;14.804;2023-05-07T07:35:26;8.90;99.90
18839;DHT22;9548;56.920;14.804;2023-05-07T07:37:52;9.00;99.90
18839;DHT22;9548;56.920;14.804;2023-05-07T07:40:19;9.30;99.90
18839;DHT22;9548;56.920;14.804;2023-05-07T07:42:48;9.40;99.90
18839;DHT22;9548;56.920;14.804;2023-05-07T07:45:15;9.60;99.90
18839;DHT22;9548;56.920;14.804;2023-05-07T07:47:42;9.80;99.90
18839;DHT22;9548;56.920;14.804;2023-05-07T07:50:09;9.90;99.90
18839;DHT22;9548;56.920;14.804;2023-05-07T07:52:36;10.00;99.90
18839;DHT22;9548;56.920;14.804;2023-05-07T07:55:04;10.20;99.90
18839;DHT22;9548;56.920;14.804;2023-05-07T07:57:31;10.40;99.90
18839;DHT22;9548;56.920;14.804;2023-05-07T07:59:59;10.60;99.90
18839;DHT22;9548;56.920;14.804;2023-05-07T08:02:27;10.80;99.90
18839;DHT22;9548;56.920;14.804;2023-05-07T08:04:54;11.00;99.90
18839;DHT22;9548;56.920;14.804;2023-05-07T08:07:21;11.00;99.90
18839;DHT22;9548;56.920;14.804;2023-05-07T08:09:48;11.20;99.90
18839;DHT22;9548;56.920;14.804;2023-05-07T08:12:15;11.40;99.90
18839;DHT22;9548;56.920;14.804;2023-05-07T08:14:42;11.50;99.90
18839;DHT22;9548;56.920;14.804;2023-05-07T08:17:11;11.50;94.70
18839;DHT22;9548;56.920;14.804;2023-05-07T08:19:41;11.40;95.10
18839;DHT22;9548;56.920;14.804;2023-05-07T08:22:08;11.40;95.00
18839;DHT22;9548;56.920;14.804;2023-05-07T08:24:36;11.60;95.30
18839;DHT22;9548;56.920;14.804;2023-05-07T08:27:03;11.70;94.10
18839;DHT22;9548;56.920;14.804;2023-05-07T08:29:30;11.80;93.80
18839;DHT22;9548;56.920;14.804;2023-05-07T08:31:57;11.80;92.90
18839;DHT22;9548;56.920;14.804;2023-05-07T08:34:25;11.80;92.20
18839;DHT22;9548;56.920;14.804;2023-05-07T08:36:52;11.90;92.20
18839;DHT22;9548;56.920;14.804;2023-05-07T08:39:19;11.90;92.50
18839;DHT22;9548;56.920;14.804;2023-05-07T08:41:46;11.90;92.30
18839;DHT22;9548;56.920;14.804;2023-05-07T08:44:16;12.10;92.80
18839;DHT22;9548;56.920;14.804;2023-05-07T08:46:48;12.50;92.30
18839;DHT22;9548;56.920;14.804;2023-05-07T08:49:17;12.70;91.50
18839;DHT22;9548;56.920;14.804;2023-05-07T08:51:45;12.90;90.30
18839;DHT22;9548;56.920;14.804;2023-05-07T08:54:16;13.00;90.00
18839;DHT22;9548;56.920;14.804;2023-05-07T08:56:43;13.00;88.60
18839;DHT22;9548;56.920;14.804;2023-05-07T08:59:10;13.20;90.30
18839;DHT22;9548;56.920;14.804;2023-05-07T09:01:37;13.40;87.30
18839;DHT22;9548;56.920;14.804;2023-05-07T09:04:04;13.40;85.30
18839;DHT22;9548;56.920;14.804;2023-05-07T09:06:32;13.40;85.70
18839;DHT22;9548;56.920;14.804;2023-05-07T09:09:00;13.40;84.20
18839;DHT22;9548;56.920;14.804;2023-05-07T09:11:30;13.40;83.70
18839;DHT22;9548;56.920;14.804;2023-05-07T09:13:57;13.50;83.20
18839;DHT22;9548;56.920;14.804;2023-05-07T09:16:28;13.40;83.90
18839;DHT22;9548;56.920;14.804;2023-05-07T09:18:58;13.20;83.90
18839;DHT22;9548;56.920;14.804;2023-05-07T09:21:25;13.20;85.20
18839;DHT22;9548;56.920;14.804;2023-05-07T09:23:54;13.40;86.10
18839;DHT22;9548;56.920;14.804;2023-05-07T09:26:23;13.60;86.10
18839;DHT22;9548;56.920;14.804;2023-05-07T09:28:50;13.90;85.80
18839;DHT22;9548;56.920;14.804;2023-05-07T09:31:17;14.00;86.00
18839;DHT22;9548;56.920;14.804;2023-05-07T09:33:44;14.10;83.80
18839;DHT22;9548;56.920;14.804;2023-05-07T09:36:11;14.20;83.70
18839;DHT22;9548;56.920;14.804;2023-05-07T09:38:38;14.30;82.30
18839;DHT22;9548;56.920;14.804;2023-05-07T09:41:07;14.50;82.30
18839;DHT22;9548;56.920;14.804;2023-05-07T09:43:37;14.90;80.10
18839;DHT22;9548;56.920;14.804;2023-05-07T09:46:06;15.50;80.70
18839;DHT22;9548;56.920;14.804;2023-05-07T09:48:37;15.60;77.40
18839;DHT22;9548;56.920;14.804;2023-05-07T09:51:14;16.00;75.70
18839;DHT22;9548;56.920;14.804;2023-05-07T09:53:42;16.70;73.50
18839;DHT22;9548;56.920;14.804;2023-05-07T09:56:13;17.30;72.20
18839;DHT22;9548;56.920;14.804;2023-05-07T09:58:42;18.00;70.20
18839;DHT22;9548;56.920;14.804;2023-05-07T10:01:11;18.90;68.60
18839;DHT22;9548;56.920;14.804;2023-05-07T10:03:40;19.40;64.20
18839;DHT22;9548;56.920;14.804;2023-05-07T10:06:09;20.60;62.10
18839;DHT22;9548;56.920;14.804;2023-05-07T10:08:36;22.20;60.00
18839;DHT22;9548;56.920;14.804;2023-05-07T10:11:04;23.60;55.90
18839;DHT22;9548;56.920;14.804;2023-05-07T10:13:32;24.60;54.00
18839;DHT22;9548;56.920;14.804;2023-05-07T10:16:02;25.10;51.40
18839;DHT22;9548;56.920;14.804;2023-05-07T10:18:30;25.40;49.50
18839;DHT22;9548;56.920;14.804;2023-05-07T10:21:03;25.80;48.20
18839;DHT22;9548;56.920;14.804;2023-05-07T10:23:32;26.80;48.50
18839;DHT22;9548;56.920;14.804;2023-05-07T10:26:00;26.30;44.40
18839;DHT22;9548;56.920;14.804;2023-05-07T10:28:29;25.10;44.20
18839;DHT22;9548;56.920;14.804;2023-05-07T10:31:08;24.50;45.50
18839;DHT22;9548;56.920;14.804;2023-05-07T10:33:37;24.40;46.80
18839;DHT22;9548;56.920;14.804;2023-05-07T10:36:05;25.20;46.40
18839;DHT22;9548;56.920;14.804;2023-05-07T10:38:33;26.40;45.90
18839;DHT22;9548;56.920;14.804;2023-05-07T10:41:01;26.70;42.90
18839;DHT22;9548;56.920;14.804;2023-05-07T10:43:39;26.40;42.50
18839;DHT22;9548;56.920;14.804;2023-05-07T10:46:14;24.90;44.00
18839;DHT22;9548;56.920;14.804;2023-05-07T10:49:07;22.90;46.30
18839;DHT22;9548;56.920;14.804;2023-05-07T10:51:35;23.00;46.60
18839;DHT22;9548;56.920;14.804;2023-05-07T10:54:21;23.80;45.30
18839;DHT22;9548;56.920;14.804;2023-05-07T10:56:48;24.30;44.80
18839;DHT22;9548;56.920;14.804;2023-05-07T10:59:35;24.60;45.00
18839;DHT22;9548;56.920;14.804;2023-05-07T11:02:09;25.90;43.90
18839;DHT22;9548;56.920;14.804;2023-05-07T11:04:39;26.50;43.00
18839;DHT22;9548;56.920;14.804;2023-05-07T11:07:25;27.60;42.50
18839;DHT22;9548;56.920;14.804;2023-05-07T11:10:02;29.20;41.80
18839;DHT22;9548;56.920;14.804;2023-05-07T11:13:03;30.40;41.00
18839;DHT22;9548;56.920;14.804;2023-05-07T11:15:36;29.80;38.50
18839;DHT22;9548;56.920;14.804;2023-05-07T11:18:05;30.10;39.50
18839;DHT22;9548;56.920;14.804;2023-05-07T11:20:54;31.10;39.40
18839;DHT22;9548;56.920;14.804;2023-05-07T11:23:55;31.50;37.70
18839;DHT22;9548;56.920;14.804;2023-05-07T11:26:23;29.90;37.40
18839;DHT22;9548;56.920;14.804;2023-05-07T11:28:51;28.40;38.60
18839;DHT22;9548;56.920;14.804;2023-05-07T11:31:21;28.30;39.50
18839;DHT22;9548;56.920;14.804;2023-05-07T11:33:51;30.00;39.60
18839;DHT22;9548;56.920;14.804;2023-05-07T11:36:18;30.90;37.60
18839;DHT22;9548;56.920;14.804;2023-05-07T11:38:46;31.90;37.20
18839;DHT22;9548;56.920;14.804;2023-05-07T11:41:13;33.20;37.00
18839;DHT22;9548;56.920;14.804;2023-05-07T11:43:57;33.10;35.10
18839;DHT22;9548;56.920;14.804;2023-05-07T11:46:24;31.50;35.40
18839;DHT22;9548;56.920;14.804;2023-05-07T11:48:53;31.10;35.00
18839;DHT22;9548;56.920;14.804;2023-05-07T11:51:21;30.70;34.50
18839;DHT22;9548;56.920;14.804;2023-05-07T11:53:48;29.70;35.50
18839;DHT22;9548;56.920;14.804;2023-05-07T11:56:17;30.10;35.50
18839;DHT22;9548;56.920;14.804;2023-05-07T11:58:45;31.00;35.20
18839;DHT22;9548;56.920;14.804;2023-05-07T12:01:13;31.00;34.50
18839;DHT22;9548;56.920;14.804;2023-05-07T12:03:42;30.00;34.60
18839;DHT22;9548;56.920;14.804;2023-05-07T12:06:11;30.70;34.90
18839;DHT22;9548;56.920;14.804;2023-05-07T12:08:38;30.80;35.20
18839;DHT22;9548;56.920;14.804;2023-05-07T12:11:09;30.70;34.60
18839;DHT22;9548;56.920;14.804;2023-05-07T12:13:37;31.90;33.80
18839;DHT22;9548;56.920;14.804;2023-05-07T12:16:05;32.90;33.20
18839;DHT22;9548;56.920;14.804;2023-05-07T12:18:34;35.00;33.40
18839;DHT22;9548;56.920;14.804;2023-05-07T12:21:01;35.90;31.90
18839;DHT22;9548;56.920;14.804;2023-05-07T12:23:30;34.10;31.40
18839;DHT22;9548;56.920;14.804;2023-05-07T12:25:57;32.70;32.70
18839;DHT22;9548;56.920;14.804;2023-05-07T12:28:25;32.30;33.30
18839;DHT22;9548;56.920;14.804;2023-05-07T12:30:52;32.40;33.50
18839;DHT22;9548;56.920;14.804;2023-05-07T12:33:25;32.70;33.20
18839;DHT22;9548;56.920;14.804;2023-05-07T12:35:54;33.80;32.50
18839;DHT22;9548;56.920;14.804;2023-05-07T12:38:22;33.50;31.80
18839;DHT22;9548;56.920;14.804;2023-05-07T12:40:53;34.20;31.80
18839;DHT22;9548;56.920;14.804;2023-05-07T12:43:21;33.00;32.10
18839;DHT22;9548;56.920;14.804;2023-05-07T12:45:49;31.50;32.40
18839;DHT22;9548;56.920;14.804;2023-05-07T12:48:17;31.30;32.90
18839;DHT22;9548;56.920;14.804;2023-05-07T12:50:44;32.60;32.30
18839;DHT22;9548;56.920;14.804;2023-05-07T12:53:11;33.90;32.80
18839;DHT22;9548;56.920;14.804;2023-05-07T12:55:43;35.70;31.40
18839;DHT22;9548;56.920;14.804;2023-05-07T12:58:16;37.40;31.30
18839;DHT22;9548;56.920;14.804;2023-05-07T13:00:43;38.80;30.00
18839;DHT22;9548;56.920;14.804;2023-05-07T13:03:11;39.70;29.20
18839;DHT22;9548;56.920;14.804;2023-05-07T13:05:38;40.00;28.60
18839;DHT22;9548;56.920;14.804;2023-05-07T13:08:05;36.70;28.80
18839;DHT22;9548;56.920;14.804;2023-05-07T13:10:35;34.20;30.00
18839;DHT22;9548;56.920;14.804;2023-05-07T13:13:02;34.00;30.00
18839;DHT22;9548;56.920;14.804;2023-05-07T13:15:30;33.60;30.60
18839;DHT22;9548;56.920;14.804;2023-05-07T13:17:57;33.50;30.20
18839;DHT22;9548;56.920;14.804;2023-05-07T13:20:24;34.00;30.70
18839;DHT22;9548;56.920;14.804;2023-05-07T13:22:51;35.30;29.90
18839;DHT22;9548;56.920;14.804;2023-05-07T13:25:18;35.10;30.00
18839;DHT22;9548;56.920;14.804;2023-05-07T13:27:45;35.80;30.40
18839;DHT22;9548;56.920;14.804;2023-05-07T13:30:12;36.90;29.30
18839;DHT22;9548;56.920;14.804;2023-05-07T13:32:40;37.10;28.70
18839;DHT22;9548;56.920;14.804;2023-05-07T13:35:07;37.10;28.40
18839;DHT22;9548;56.920;14.804;2023-05-07T13:37:34;37.60;28.80
18839;DHT22;9548;56.920;14.804;2023-05-07T13:40:02;37.60;28.60
18839;DHT22;9548;56.920;14.804;2023-05-07T13:42:29;38.10;28.70
18839;DHT22;9548;56.920;14.804;2023-05-07T13:44:56;36.90;29.00
18839;DHT22;9548;56.920;14.804;2023-05-07T13:47:23;36.30;28.80
18839;DHT22;9548;56.920;14.804;2023-05-07T13:49:51;35.80;28.70
18839;DHT22;9548;56.920;14.804;2023-05-07T13:52:19;33.10;29.60
18839;DHT22;9548;56.920;14.804;2023-05-07T13:54:46;33.20;30.10
18839;DHT22;9548;56.920;14.804;2023-05-07T13:57:12;32.90;30.40
18839;DHT22;9548;56.920;14.804;2023-05-07T13:59:40;34.00;30.00
18839;DHT22;9548;56.920;14.804;2023-05-07T14:02:07;35.60;29.60
18839;DHT22;9548;56.920;14.804;2023-05-07T14:04:35;37.00;29.40
18839;DHT22;9548;56.920;14.804;2023-05-07T14:07:03;37.30;28.40
18839;DHT22;9548;56.920;14.804;2023-05-07T14:09:30;36.60;28.40
18839;DHT22;9548;56.920;14.804;2023-05-07T14:11:58;34.90;29.10
18839;DHT22;9548;56.920;14.804;2023-05-07T14:14:25;34.00;29.80
18839;DHT22;9548;56.920;14.804;2023-05-07T14:16:52;34.50;30.40
18839;DHT22;9548;56.920;14.804;2023-05-07T14:19:19;35.60;29.10
18839;DHT22;9548;56.920;14.804;2023-05-07T14:21:48;36.70;28.70
18839;DHT22;9548;56.920;14.804;2023-05-07T14:24:16;37.00;28.30
18839;DHT22;9548;56.920;14.804;2023-05-07T14:26:43;34.60;28.80
18839;DHT22;9548;56.920;14.804;2023-05-07T14:29:10;32.80;29.80
18839;DHT22;9548;56.920;14.804;2023-05-07T14:31:37;32.10;30.30
18839;DHT22;9548;56.920;14.804;2023-05-07T14:34:04;32.20;30.30
18839;DHT22;9548;56.920;14.804;2023-05-07T14:36:31;31.80;30.40
18839;DHT22;9548;56.920;14.804;2023-05-07T14:38:58;32.80;30.00
18839;DHT22;9548;56.920;14.804;2023-05-07T14:41:26;33.70;29.60
18839;DHT22;9548;56.920;14.804;2023-05-07T14:43:53;33.80;29.40
18839;DHT22;9548;56.920;14.804;2023-05-07T14:46:20;32.80;30.00
18839;DHT22;9548;56.920;14.804;2023-05-07T14:48:47;33.50;29.90
18839;DHT22;9548;56.920;14.804;2023-05-07T14:51:14;34.10;29.80
18839;DHT22;9548;56.920;14.804;2023-05-07T14:53:41;34.10;29.30
18839;DHT22;9548;56.920;14.804;2023-05-07T14:56:08;33.80;29.60
18839;DHT22;9548;56.920;14.804;2023-05-07T14:58:37;33.60;29.50
18839;DHT22;9548;56.920;14.804;2023-05-07T15:01:04;32.80;29.90
18839;DHT22;9548;56.920;14.804;2023-05-07T15:03:31;33.80;29.80
18839;DHT22;9548;56.920;14.804;2023-05-07T15:05:58;34.30;29.30
18839;DHT22;9548;56.920;14.804;2023-05-07T15:08:25;34.10;29.10
18839;DHT22;9548;56.920;14.804;2023-05-07T15:10:52;34.10;29.00
18839;DHT22;9548;56.920;14.804;2023-05-07T15:13:19;32.40;29.70
18839;DHT22;9548;56.920;14.804;2023-05-07T15:15:47;32.00;29.90
18839;DHT22;9548;56.920;14.804;2023-05-07T15:18:15;31.00;30.30
18839;DHT22;9548;56.920;14.804;2023-05-07T15:20:42;31.00;30.60
18839;DHT22;9548;56.920;14.804;2023-05-07T15:23:09;31.90;30.70
18839;DHT22;9548;56.920;14.804;2023-05-07T15:25:37;32.60;30.00
18839;DHT22;9548;56.920;14.804;2023-05-07T15:28:04;31.80;30.00
18839;DHT22;9548;56.920;14.804;2023-05-07T15:30:31;31.30;29.90
18839;DHT22;9548;56.920;14.804;2023-05-07T15:33:00;30.90;30.50
18839;DHT22;9548;56.920;14.804;2023-05-07T15:35:27;31.70;30.30
18839;DHT22;9548;56.920;14.804;2023-05-07T15:37:54;32.70;29.40
18839;DHT22;9548;56.920;14.804;2023-05-07T15:40:21;33.50;29.20